AirNav   Advertisement
 
 883 users online  

MO96 Ray Johnson Inc Airport
Centerville, Missouri, USA


FAA INFORMATION EFFECTIVE 14 SEPTEMBER 2017

Location

FAA Identifier: MO96
Lat/Long: 37-24-58.1710N / 090-57-48.4460W
37-24.969517N / 090-57.807433W
37.4161586 / -90.9634572
(estimated)
Elevation: 950 ft. / 290 m (estimated)
Variation: 03E (1985)
From city: 1 mile S of CENTERVILLE, MO
Time zone: UTC -5 (UTC -6 during Standard Time)
Zip code: 63633

Airport Operations

Airport use: Private use. Permission required prior to landing
Activation date: 02/1977
Control tower: no
ARTCC: KANSAS CITY CENTER
FSS: SAINT LOUIS FLIGHT SERVICE STATION
Attendance: UNATNDD
Wind indicator: no
Segmented circle: no

Nearby radio navigation aids

VOR radial/distance  VOR name  Freq  Var
FAMr245/38.0FARMINGTON VORTAC115.7001E

Airport Services

Runway Information

Runway N/S

Dimensions: 1900 x 100 ft. / 579 x 30 m
Surface: turf
RUNWAY N  RUNWAY S
Traffic pattern: leftleft

Airport Ownership and Management from official FAA records

Ownership: Privately-owned
Owner: RAY JOHNSON
P.O. BOX 97
CENTERVILLE, MO 63633
Phone 573-648-2363
Manager: NANCY JOHNSON
P.O. BOX 97
CENTERVILLE, MO 63633
Phone 573-648-2363

Instrument Procedures

There are no published instrument procedures at MO96.

Some nearby airports with instrument procedures:

8WC - Washington County Airport (33 nm N)
K33 - Salem Memorial Airport (33 nm W)
KFAM - Farmington Regional Airport (33 nm NE)
H88 - A Paul Vance Fredericktown Regional Airport (34 nm E)
KMNF - Mountain View Airport (44 nm SW)
 
Loc | Ops | Rwys | IFR | FBO | Links
Com | Nav | Svcs | Stats | Notes

Kansas City Aviation Department
 
Area around MO96 (Ray Johnson Inc Airport)
 
Road maps at: MapQuest Bing Google
 
Aerial photo
No photo
 
Sectional chart

 
Airport distance calculator
Flying to Ray Johnson Inc Airport? Find the distance to fly.

From to MO96

Sunrise and sunset
Times for 24-Sep-2017
 Local
(UTC-5)
 Zulu
(UTC)
Morning civil twilight06:2811:28
Sunrise06:5411:54
Sunset18:5723:57
Evening civil twilight19:2300:23

Current date and time
Zulu (UTC)  24-Sep-2017 23:50:47
Local (UTC-5)  24-Sep-2017 18:50:47
 
METAR
KFAM 
33nm NE 
242256Z AUTO 20005KT 10SM CLR 27/18 A2999 RMK AO2 LTG DSNT E AND SE SLP145 T02720183
KPOF 
50nm SE 
242253Z AUTO 09005KT 10SM CLR 28/19 A2996 RMK AO2 SLP140 T02780189
TAF
NOTAMs
Click for the latest NOTAMs
NOTAMs are issued by the DoD/FAA and will open in a separate window not controlled by AirNav.

 

 
 

Would you like to see your business listed on this page?

 If your business provides an interesting product or service to pilots, flight crews, aircraft, or users of the Ray Johnson Inc Airport, you should consider listing it here.  To start the listing process, click on the button below
 
Add a business
 

Other Pages about Ray Johnson Inc Airport

Update a link
 
Copyright © AirNav, LLC. All rights reserved. Privacy Policy  Contact